sensor_id;sensor_type;location;lat;lon;timestamp;P1;durP1;ratioP1;P2;durP2;ratioP2
57567;SDS011;43403;51.948;5.922;2022-11-13T00:00:00;16.73;;;11.15;;
57567;SDS011;43403;51.948;5.922;2022-11-13T00:02:26;17.33;;;11.27;;
57567;SDS011;43403;51.948;5.922;2022-11-13T00:04:53;15.45;;;11.05;;
57567;SDS011;43403;51.948;5.922;2022-11-13T00:07:19;15.60;;;11.63;;
57567;SDS011;43403;51.948;5.922;2022-11-13T00:09:46;15.77;;;11.82;;
57567;SDS011;43403;51.948;5.922;2022-11-13T00:12:12;17.58;;;11.77;;
57567;SDS011;43403;51.948;5.922;2022-11-13T00:14:38;15.18;;;11.55;;
57567;SDS011;43403;51.948;5.922;2022-11-13T00:17:05;16.10;;;11.60;;
57567;SDS011;43403;51.948;5.922;2022-11-13T00:19:31;18.73;;;12.18;;
57567;SDS011;43403;51.948;5.922;2022-11-13T00:21:57;17.13;;;12.20;;
57567;SDS011;43403;51.948;5.922;2022-11-13T00:24:25;16.90;;;11.82;;
57567;SDS011;43403;51.948;5.922;2022-11-13T00:26:51;15.50;;;12.10;;
57567;SDS011;43403;51.948;5.922;2022-11-13T00:29:18;14.30;;;11.23;;
57567;SDS011;43403;51.948;5.922;2022-11-13T00:31:44;17.17;;;11.73;;
57567;SDS011;43403;51.948;5.922;2022-11-13T00:34:10;15.73;;;12.10;;
57567;SDS011;43403;51.948;5.922;2022-11-13T00:36:57;16.52;;;12.10;;
57567;SDS011;43403;51.948;5.922;2022-11-13T00:39:23;16.90;;;11.40;;
57567;SDS011;43403;51.948;5.922;2022-11-13T00:41:49;13.60;;;11.18;;
57567;SDS011;43403;51.948;5.922;2022-11-13T00:44:16;15.60;;;11.82;;
57567;SDS011;43403;51.948;5.922;2022-11-13T00:46:43;18.05;;;12.88;;
57567;SDS011;43403;51.948;5.922;2022-11-13T00:49:09;18.90;;;11.60;;
57567;SDS011;43403;51.948;5.922;2022-11-13T00:51:35;17.20;;;11.48;;
57567;SDS011;43403;51.948;5.922;2022-11-13T00:54:02;16.08;;;11.10;;
57567;SDS011;43403;51.948;5.922;2022-11-13T00:56:28;16.38;;;11.57;;
57567;SDS011;43403;51.948;5.922;2022-11-13T00:58:54;14.82;;;11.25;;
57567;SDS011;43403;51.948;5.922;2022-11-13T01:01:21;16.02;;;12.00;;
57567;SDS011;43403;51.948;5.922;2022-11-13T01:03:47;17.80;;;11.10;;
57567;SDS011;43403;51.948;5.922;2022-11-13T01:06:15;14.85;;;11.55;;
57567;SDS011;43403;51.948;5.922;2022-11-13T01:08:44;16.42;;;11.82;;
57567;SDS011;43403;51.948;5.922;2022-11-13T01:11:12;15.30;;;11.45;;
57567;SDS011;43403;51.948;5.922;2022-11-13T01:13:42;16.10;;;11.02;;
57567;SDS011;43403;51.948;5.922;2022-11-13T01:16:09;14.20;;;11.13;;
57567;SDS011;43403;51.948;5.922;2022-11-13T01:18:37;14.80;;;11.38;;
57567;SDS011;43403;51.948;5.922;2022-11-13T01:21:05;18.60;;;11.85;;
57567;SDS011;43403;51.948;5.922;2022-11-13T01:23:33;14.43;;;10.82;;
57567;SDS011;43403;51.948;5.922;2022-11-13T01:26:04;14.75;;;11.43;;
57567;SDS011;43403;51.948;5.922;2022-11-13T01:28:33;14.55;;;11.27;;
57567;SDS011;43403;51.948;5.922;2022-11-13T01:30:59;15.82;;;11.38;;
57567;SDS011;43403;51.948;5.922;2022-11-13T01:33:25;13.25;;;9.68;;
57567;SDS011;43403;51.948;5.922;2022-11-13T01:35:52;13.48;;;9.57;;
57567;SDS011;43403;51.948;5.922;2022-11-13T01:38:25;17.30;;;10.82;;
57567;SDS011;43403;51.948;5.922;2022-11-13T01:40:52;14.23;;;10.98;;
57567;SDS011;43403;51.948;5.922;2022-11-13T01:43:21;15.23;;;10.88;;
57567;SDS011;43403;51.948;5.922;2022-11-13T01:48:35;17.30;;;11.43;;
57567;SDS011;43403;51.948;5.922;2022-11-13T01:51:08;15.80;;;11.82;;
57567;SDS011;43403;51.948;5.922;2022-11-13T01:53:37;17.77;;;10.52;;
57567;SDS011;43403;51.948;5.922;2022-11-13T01:56:07;15.32;;;11.13;;
57567;SDS011;43403;51.948;5.922;2022-11-13T01:58:34;15.27;;;11.25;;
57567;SDS011;43403;51.948;5.922;2022-11-13T02:01:00;17.27;;;11.43;;
57567;SDS011;43403;51.948;5.922;2022-11-13T02:03:27;14.23;;;12.10;;
57567;SDS011;43403;51.948;5.922;2022-11-13T02:05:54;18.45;;;11.45;;
57567;SDS011;43403;51.948;5.922;2022-11-13T02:08:21;15.05;;;11.02;;
57567;SDS011;43403;51.948;5.922;2022-11-13T02:10:48;16.40;;;11.68;;
57567;SDS011;43403;51.948;5.922;2022-11-13T02:13:15;14.40;;;11.43;;
57567;SDS011;43403;51.948;5.922;2022-11-13T02:15:41;17.23;;;11.95;;
57567;SDS011;43403;51.948;5.922;2022-11-13T02:18:10;14.82;;;11.65;;
57567;SDS011;43403;51.948;5.922;2022-11-13T02:23:18;15.35;;;11.50;;
57567;SDS011;43403;51.948;5.922;2022-11-13T02:25:50;16.08;;;10.77;;
57567;SDS011;43403;51.948;5.922;2022-11-13T02:28:18;15.57;;;11.45;;
57567;SDS011;43403;51.948;5.922;2022-11-13T02:30:45;14.90;;;10.75;;
57567;SDS011;43403;51.948;5.922;2022-11-13T02:33:22;17.13;;;11.35;;
57567;SDS011;43403;51.948;5.922;2022-11-13T02:35:50;16.35;;;10.98;;
57567;SDS011;43403;51.948;5.922;2022-11-13T02:38:17;14.95;;;10.82;;
57567;SDS011;43403;51.948;5.922;2022-11-13T02:40:43;14.98;;;10.55;;
57567;SDS011;43403;51.948;5.922;2022-11-13T02:43:10;14.65;;;10.82;;
57567;SDS011;43403;51.948;5.922;2022-11-13T02:45:36;16.27;;;11.25;;
57567;SDS011;43403;51.948;5.922;2022-11-13T02:48:04;20.88;;;11.52;;
57567;SDS011;43403;51.948;5.922;2022-11-13T02:50:31;14.93;;;11.60;;
57567;SDS011;43403;51.948;5.922;2022-11-13T02:52:59;13.50;;;10.85;;
57567;SDS011;43403;51.948;5.922;2022-11-13T02:55:26;13.57;;;10.98;;
57567;SDS011;43403;51.948;5.922;2022-11-13T02:57:52;16.55;;;10.98;;
57567;SDS011;43403;51.948;5.922;2022-11-13T03:00:18;14.35;;;10.95;;
57567;SDS011;43403;51.948;5.922;2022-11-13T03:02:45;16.10;;;10.65;;
57567;SDS011;43403;51.948;5.922;2022-11-13T03:05:11;15.68;;;11.45;;
57567;SDS011;43403;51.948;5.922;2022-11-13T03:07:39;14.48;;;11.30;;
57567;SDS011;43403;51.948;5.922;2022-11-13T03:10:07;14.20;;;10.98;;
57567;SDS011;43403;51.948;5.922;2022-11-13T03:12:34;19.30;;;11.32;;
57567;SDS011;43403;51.948;5.922;2022-11-13T03:15:01;13.95;;;11.60;;
57567;SDS011;43403;51.948;5.922;2022-11-13T03:17:31;16.30;;;11.75;;
57567;SDS011;43403;51.948;5.922;2022-11-13T03:19:57;15.75;;;11.05;;
57567;SDS011;43403;51.948;5.922;2022-11-13T03:22:24;15.40;;;11.73;;
57567;SDS011;43403;51.948;5.922;2022-11-13T03:24:51;14.45;;;11.32;;
57567;SDS011;43403;51.948;5.922;2022-11-13T03:27:18;14.45;;;11.48;;
57567;SDS011;43403;51.948;5.922;2022-11-13T03:29:44;15.73;;;11.75;;
57567;SDS011;43403;51.948;5.922;2022-11-13T03:32:11;15.45;;;11.85;;
57567;SDS011;43403;51.948;5.922;2022-11-13T03:34:37;17.45;;;11.35;;
57567;SDS011;43403;51.948;5.922;2022-11-13T03:37:04;16.85;;;11.90;;
57567;SDS011;43403;51.948;5.922;2022-11-13T03:39:30;12.93;;;10.88;;
57567;SDS011;43403;51.948;5.922;2022-11-13T03:41:57;14.77;;;11.82;;
57567;SDS011;43403;51.948;5.922;2022-11-13T03:44:23;15.93;;;12.00;;
57567;SDS011;43403;51.948;5.922;2022-11-13T03:46:49;16.95;;;12.10;;
57567;SDS011;43403;51.948;5.922;2022-11-13T03:49:15;19.15;;;12.48;;
57567;SDS011;43403;51.948;5.922;2022-11-13T03:51:42;14.82;;;10.57;;
57567;SDS011;43403;51.948;5.922;2022-11-13T03:54:08;15.00;;;11.85;;
57567;SDS011;43403;51.948;5.922;2022-11-13T03:56:35;16.35;;;11.25;;
57567;SDS011;43403;51.948;5.922;2022-11-13T03:59:01;19.10;;;11.23;;
57567;SDS011;43403;51.948;5.922;2022-11-13T04:01:27;13.80;;;11.35;;
57567;SDS011;43403;51.948;5.922;2022-11-13T04:03:54;16.65;;;11.38;;
57567;SDS011;43403;51.948;5.922;2022-11-13T04:06:20;14.00;;;11.63;;
57567;SDS011;43403;51.948;5.922;2022-11-13T04:08:47;14.50;;;11.10;;
57567;SDS011;43403;51.948;5.922;2022-11-13T04:11:13;15.82;;;11.15;;
57567;SDS011;43403;51.948;5.922;2022-11-13T04:13:39;14.38;;;11.63;;
57567;SDS011;43403;51.948;5.922;2022-11-13T04:16:06;14.00;;;10.35;;
57567;SDS011;43403;51.948;5.922;2022-11-13T04:18:32;16.38;;;11.38;;
57567;SDS011;43403;51.948;5.922;2022-11-13T04:21:02;14.05;;;11.65;;
57567;SDS011;43403;51.948;5.922;2022-11-13T04:23:29;16.55;;;12.15;;
57567;SDS011;43403;51.948;5.922;2022-11-13T04:25:56;14.70;;;10.95;;
57567;SDS011;43403;51.948;5.922;2022-11-13T04:28:23;15.05;;;11.43;;
57567;SDS011;43403;51.948;5.922;2022-11-13T04:30:51;15.25;;;11.07;;
57567;SDS011;43403;51.948;5.922;2022-11-13T04:33:19;16.02;;;11.45;;
57567;SDS011;43403;51.948;5.922;2022-11-13T04:35:45;16.00;;;11.75;;
57567;SDS011;43403;51.948;5.922;2022-11-13T04:38:13;16.70;;;12.53;;
57567;SDS011;43403;51.948;5.922;2022-11-13T04:40:40;16.70;;;11.90;;
57567;SDS011;43403;51.948;5.922;2022-11-13T04:43:07;15.60;;;11.75;;
57567;SDS011;43403;51.948;5.922;2022-11-13T04:45:33;18.85;;;11.82;;
57567;SDS011;43403;51.948;5.922;2022-11-13T04:48:00;16.38;;;11.48;;
57567;SDS011;43403;51.948;5.922;2022-11-13T04:50:26;13.02;;;10.57;;
57567;SDS011;43403;51.948;5.922;2022-11-13T04:52:53;14.88;;;10.63;;
57567;SDS011;43403;51.948;5.922;2022-11-13T04:55:19;13.73;;;10.73;;
57567;SDS011;43403;51.948;5.922;2022-11-13T04:57:46;15.20;;;11.52;;
57567;SDS011;43403;51.948;5.922;2022-11-13T05:00:12;15.65;;;11.40;;
57567;SDS011;43403;51.948;5.922;2022-11-13T05:02:39;15.05;;;11.52;;
57567;SDS011;43403;51.948;5.922;2022-11-13T05:05:05;14.43;;;10.43;;
57567;SDS011;43403;51.948;5.922;2022-11-13T05:07:32;15.20;;;11.10;;
57567;SDS011;43403;51.948;5.922;2022-11-13T05:09:58;15.05;;;11.10;;
57567;SDS011;43403;51.948;5.922;2022-11-13T05:12:25;16.63;;;11.48;;
57567;SDS011;43403;51.948;5.922;2022-11-13T05:14:51;17.02;;;11.45;;
57567;SDS011;43403;51.948;5.922;2022-11-13T05:17:18;14.20;;;11.00;;
57567;SDS011;43403;51.948;5.922;2022-11-13T05:19:44;13.27;;;10.77;;
57567;SDS011;43403;51.948;5.922;2022-11-13T05:22:10;14.65;;;11.07;;
57567;SDS011;43403;51.948;5.922;2022-11-13T05:24:37;15.13;;;10.98;;
57567;SDS011;43403;51.948;5.922;2022-11-13T05:27:03;15.00;;;11.70;;
57567;SDS011;43403;51.948;5.922;2022-11-13T05:29:29;13.63;;;11.13;;
57567;SDS011;43403;51.948;5.922;2022-11-13T05:31:56;14.90;;;11.38;;
57567;SDS011;43403;51.948;5.922;2022-11-13T05:34:22;15.85;;;11.55;;
57567;SDS011;43403;51.948;5.922;2022-11-13T05:36:48;15.77;;;11.43;;
57567;SDS011;43403;51.948;5.922;2022-11-13T05:39:15;14.65;;;11.70;;
57567;SDS011;43403;51.948;5.922;2022-11-13T05:41:41;15.27;;;10.70;;
57567;SDS011;43403;51.948;5.922;2022-11-13T05:44:08;17.77;;;11.32;;
57567;SDS011;43403;51.948;5.922;2022-11-13T05:46:34;18.50;;;11.68;;
57567;SDS011;43403;51.948;5.922;2022-11-13T05:49:01;15.48;;;11.45;;
57567;SDS011;43403;51.948;5.922;2022-11-13T05:51:29;14.60;;;11.27;;
57567;SDS011;43403;51.948;5.922;2022-11-13T05:53:58;15.75;;;11.20;;
57567;SDS011;43403;51.948;5.922;2022-11-13T05:56:26;14.10;;;11.07;;
57567;SDS011;43403;51.948;5.922;2022-11-13T05:58:54;14.05;;;10.23;;
57567;SDS011;43403;51.948;5.922;2022-11-13T06:01:29;15.52;;;10.13;;
57567;SDS011;43403;51.948;5.922;2022-11-13T06:03:58;15.50;;;10.93;;
57567;SDS011;43403;51.948;5.922;2022-11-13T06:06:26;13.75;;;10.15;;
57567;SDS011;43403;51.948;5.922;2022-11-13T06:08:54;17.10;;;9.48;;
57567;SDS011;43403;51.948;5.922;2022-11-13T06:11:22;14.98;;;10.40;;
57567;SDS011;43403;51.948;5.922;2022-11-13T06:13:50;14.52;;;10.27;;
57567;SDS011;43403;51.948;5.922;2022-11-13T06:16:22;15.05;;;10.57;;
57567;SDS011;43403;51.948;5.922;2022-11-13T06:18:54;13.82;;;10.65;;
57567;SDS011;43403;51.948;5.922;2022-11-13T06:21:24;14.55;;;10.82;;
57567;SDS011;43403;51.948;5.922;2022-11-13T06:23:52;13.60;;;9.50;;
57567;SDS011;43403;51.948;5.922;2022-11-13T06:26:24;15.70;;;10.98;;
57567;SDS011;43403;51.948;5.922;2022-11-13T06:28:55;16.27;;;10.85;;
57567;SDS011;43403;51.948;5.922;2022-11-13T06:31:26;13.98;;;10.00;;
57567;SDS011;43403;51.948;5.922;2022-11-13T06:33:54;14.68;;;10.65;;
57567;SDS011;43403;51.948;5.922;2022-11-13T06:36:23;13.52;;;9.73;;
57567;SDS011;43403;51.948;5.922;2022-11-13T06:38:51;14.27;;;9.57;;
57567;SDS011;43403;51.948;5.922;2022-11-13T06:41:19;15.77;;;10.80;;
57567;SDS011;43403;51.948;5.922;2022-11-13T06:46:14;14.05;;;9.05;;
57567;SDS011;43403;51.948;5.922;2022-11-13T06:48:42;13.90;;;10.20;;
57567;SDS011;43403;51.948;5.922;2022-11-13T06:51:13;15.32;;;10.48;;
57567;SDS011;43403;51.948;5.922;2022-11-13T06:53:42;12.32;;;9.93;;
57567;SDS011;43403;51.948;5.922;2022-11-13T06:56:09;13.23;;;10.05;;
57567;SDS011;43403;51.948;5.922;2022-11-13T06:58:36;13.25;;;10.60;;
57567;SDS011;43403;51.948;5.922;2022-11-13T07:01:04;13.02;;;10.20;;
57567;SDS011;43403;51.948;5.922;2022-11-13T07:03:38;14.60;;;11.00;;
57567;SDS011;43403;51.948;5.922;2022-11-13T07:06:05;14.73;;;10.07;;
57567;SDS011;43403;51.948;5.922;2022-11-13T07:08:34;13.38;;;10.63;;
57567;SDS011;43403;51.948;5.922;2022-11-13T07:11:01;15.00;;;11.23;;
57567;SDS011;43403;51.948;5.922;2022-11-13T07:13:27;15.45;;;10.93;;
57567;SDS011;43403;51.948;5.922;2022-11-13T07:15:59;13.20;;;10.20;;
57567;SDS011;43403;51.948;5.922;2022-11-13T07:18:38;12.43;;;10.23;;
57567;SDS011;43403;51.948;5.922;2022-11-13T07:21:05;14.75;;;10.75;;
57567;SDS011;43403;51.948;5.922;2022-11-13T07:26:02;15.43;;;10.38;;
57567;SDS011;43403;51.948;5.922;2022-11-13T07:28:29;13.00;;;9.88;;
57567;SDS011;43403;51.948;5.922;2022-11-13T07:30:59;13.02;;;9.95;;
57567;SDS011;43403;51.948;5.922;2022-11-13T07:33:26;12.95;;;9.18;;
57567;SDS011;43403;51.948;5.922;2022-11-13T07:35:53;14.40;;;10.70;;
57567;SDS011;43403;51.948;5.922;2022-11-13T07:38:20;16.20;;;10.55;;
57567;SDS011;43403;51.948;5.922;2022-11-13T07:40:47;13.38;;;10.13;;
57567;SDS011;43403;51.948;5.922;2022-11-13T07:43:14;14.27;;;10.48;;
57567;SDS011;43403;51.948;5.922;2022-11-13T07:45:40;13.95;;;10.57;;
57567;SDS011;43403;51.948;5.922;2022-11-13T07:48:08;14.20;;;10.20;;
57567;SDS011;43403;51.948;5.922;2022-11-13T07:50:35;16.90;;;10.70;;
57567;SDS011;43403;51.948;5.922;2022-11-13T07:53:03;15.30;;;10.83;;
57567;SDS011;43403;51.948;5.922;2022-11-13T07:55:32;12.30;;;9.85;;
57567;SDS011;43403;51.948;5.922;2022-11-13T07:58:00;16.50;;;10.77;;
57567;SDS011;43403;51.948;5.922;2022-11-13T08:00:27;14.38;;;10.75;;
57567;SDS011;43403;51.948;5.922;2022-11-13T08:02:55;15.32;;;11.50;;
57567;SDS011;43403;51.948;5.922;2022-11-13T08:05:21;14.85;;;11.13;;
57567;SDS011;43403;51.948;5.922;2022-11-13T08:07:48;14.52;;;10.95;;
57567;SDS011;43403;51.948;5.922;2022-11-13T08:10:17;14.43;;;10.77;;
57567;SDS011;43403;51.948;5.922;2022-11-13T08:12:44;12.60;;;10.15;;
57567;SDS011;43403;51.948;5.922;2022-11-13T08:15:12;14.88;;;11.50;;
57567;SDS011;43403;51.948;5.922;2022-11-13T08:17:39;16.02;;;10.23;;
57567;SDS011;43403;51.948;5.922;2022-11-13T08:20:06;16.00;;;10.48;;
57567;SDS011;43403;51.948;5.922;2022-11-13T08:22:34;15.88;;;11.35;;
57567;SDS011;43403;51.948;5.922;2022-11-13T08:25:00;13.85;;;10.35;;
57567;SDS011;43403;51.948;5.922;2022-11-13T08:27:26;13.38;;;10.68;;
57567;SDS011;43403;51.948;5.922;2022-11-13T08:29:53;14.50;;;10.23;;
57567;SDS011;43403;51.948;5.922;2022-11-13T08:32:19;13.30;;;10.23;;
57567;SDS011;43403;51.948;5.922;2022-11-13T08:34:47;12.20;;;9.43;;
57567;SDS011;43403;51.948;5.922;2022-11-13T08:37:14;16.02;;;11.07;;
57567;SDS011;43403;51.948;5.922;2022-11-13T08:39:40;15.70;;;10.10;;
57567;SDS011;43403;51.948;5.922;2022-11-13T08:42:06;13.68;;;10.57;;
57567;SDS011;43403;51.948;5.922;2022-11-13T08:44:33;14.77;;;11.40;;
57567;SDS011;43403;51.948;5.922;2022-11-13T08:46:59;16.35;;;11.63;;
57567;SDS011;43403;51.948;5.922;2022-11-13T08:49:25;15.90;;;10.73;;
57567;SDS011;43403;51.948;5.922;2022-11-13T08:51:52;13.50;;;11.02;;
57567;SDS011;43403;51.948;5.922;2022-11-13T08:54:18;10.55;;;7.75;;
57567;SDS011;43403;51.948;5.922;2022-11-13T08:56:46;15.23;;;11.23;;
57567;SDS011;43403;51.948;5.922;2022-11-13T08:59:21;13.93;;;10.95;;
57567;SDS011;43403;51.948;5.922;2022-11-13T09:01:48;13.55;;;10.65;;
57567;SDS011;43403;51.948;5.922;2022-11-13T09:04:15;15.77;;;10.82;;
57567;SDS011;43403;51.948;5.922;2022-11-13T09:06:42;13.73;;;9.55;;
57567;SDS011;43403;51.948;5.922;2022-11-13T09:09:08;13.88;;;11.65;;
57567;SDS011;43403;51.948;5.922;2022-11-13T09:11:35;13.77;;;9.63;;
57567;SDS011;43403;51.948;5.922;2022-11-13T09:14:01;12.90;;;10.60;;
57567;SDS011;43403;51.948;5.922;2022-11-13T09:16:27;16.08;;;11.85;;
57567;SDS011;43403;51.948;5.922;2022-11-13T09:18:54;16.50;;;11.57;;
57567;SDS011;43403;51.948;5.922;2022-11-13T09:21:20;14.48;;;10.88;;
57567;SDS011;43403;51.948;5.922;2022-11-13T09:23:47;11.80;;;9.50;;
57567;SDS011;43403;51.948;5.922;2022-11-13T09:26:13;12.48;;;9.85;;
57567;SDS011;43403;51.948;5.922;2022-11-13T09:28:39;12.88;;;10.65;;
57567;SDS011;43403;51.948;5.922;2022-11-13T09:31:06;18.08;;;10.85;;
57567;SDS011;43403;51.948;5.922;2022-11-13T09:33:33;13.48;;;10.13;;
57567;SDS011;43403;51.948;5.922;2022-11-13T09:35:59;18.02;;;11.90;;
57567;SDS011;43403;51.948;5.922;2022-11-13T09:38:26;15.15;;;10.48;;
57567;SDS011;43403;51.948;5.922;2022-11-13T09:40:56;14.82;;;11.00;;
57567;SDS011;43403;51.948;5.922;2022-11-13T09:43:38;16.52;;;11.50;;
57567;SDS011;43403;51.948;5.922;2022-11-13T09:51:49;12.65;;;9.13;;
57567;SDS011;43403;51.948;5.922;2022-11-13T09:54:18;11.00;;;8.63;;
57567;SDS011;43403;51.948;5.922;2022-11-13T09:56:50;14.57;;;11.27;;
57567;SDS011;43403;51.948;5.922;2022-11-13T09:59:28;13.98;;;10.48;;
57567;SDS011;43403;51.948;5.922;2022-11-13T10:02:07;14.73;;;10.30;;
57567;SDS011;43403;51.948;5.922;2022-11-13T10:10:16;15.15;;;11.05;;
57567;SDS011;43403;51.948;5.922;2022-11-13T10:12:43;15.07;;;10.88;;
57567;SDS011;43403;51.948;5.922;2022-11-13T10:15:12;17.65;;;11.68;;
57567;SDS011;43403;51.948;5.922;2022-11-13T10:17:45;12.73;;;9.88;;
57567;SDS011;43403;51.948;5.922;2022-11-13T10:20:28;13.02;;;8.50;;
57567;SDS011;43403;51.948;5.922;2022-11-13T10:23:13;9.77;;;8.10;;
57567;SDS011;43403;51.948;5.922;2022-11-13T10:25:44;12.18;;;9.65;;
57567;SDS011;43403;51.948;5.922;2022-11-13T10:28:18;14.00;;;8.88;;
57567;SDS011;43403;51.948;5.922;2022-11-13T10:31:09;13.00;;;10.25;;
57567;SDS011;43403;51.948;5.922;2022-11-13T10:38:43;13.80;;;10.40;;
57567;SDS011;43403;51.948;5.922;2022-11-13T10:41:18;14.13;;;10.60;;
57567;SDS011;43403;51.948;5.922;2022-11-13T10:46:34;10.97;;;8.90;;
57567;SDS011;43403;51.948;5.922;2022-11-13T10:49:17;15.82;;;10.93;;
57567;SDS011;43403;51.948;5.922;2022-11-13T10:51:52;17.15;;;9.50;;
57567;SDS011;43403;51.948;5.922;2022-11-13T10:54:24;13.35;;;9.43;;
57567;SDS011;43403;51.948;5.922;2022-11-13T10:57:00;14.48;;;10.15;;
57567;SDS011;43403;51.948;5.922;2022-11-13T10:59:38;15.70;;;9.50;;
57567;SDS011;43403;51.948;5.922;2022-11-13T11:04:46;14.65;;;10.13;;
57567;SDS011;43403;51.948;5.922;2022-11-13T11:07:17;12.77;;;10.27;;
57567;SDS011;43403;51.948;5.922;2022-11-13T11:09:47;13.50;;;10.63;;
57567;SDS011;43403;51.948;5.922;2022-11-13T11:12:22;14.57;;;10.95;;
57567;SDS011;43403;51.948;5.922;2022-11-13T11:20:46;12.68;;;10.20;;
57567;SDS011;43403;51.948;5.922;2022-11-13T11:23:20;14.43;;;10.80;;
57567;SDS011;43403;51.948;5.922;2022-11-13T11:25:52;14.10;;;10.50;;
57567;SDS011;43403;51.948;5.922;2022-11-13T11:31:28;12.82;;;10.65;;
57567;SDS011;43403;51.948;5.922;2022-11-13T11:34:19;14.05;;;10.93;;
57567;SDS011;43403;51.948;5.922;2022-11-13T11:39:24;14.18;;;11.00;;
57567;SDS011;43403;51.948;5.922;2022-11-13T11:47:23;13.57;;;9.70;;
57567;SDS011;43403;51.948;5.922;2022-11-13T11:49:49;11.63;;;9.40;;
57567;SDS011;43403;51.948;5.922;2022-11-13T11:52:19;12.52;;;9.25;;
57567;SDS011;43403;51.948;5.922;2022-11-13T11:58:04;10.85;;;7.75;;
57567;SDS011;43403;51.948;5.922;2022-11-13T12:00:45;12.05;;;9.30;;
57567;SDS011;43403;51.948;5.922;2022-11-13T12:03:36;10.50;;;9.00;;
57567;SDS011;43403;51.948;5.922;2022-11-13T12:06:06;11.20;;;8.48;;
57567;SDS011;43403;51.948;5.922;2022-11-13T12:09:27;10.15;;;8.45;;
57567;SDS011;43403;51.948;5.922;2022-11-13T12:11:31;11.85;;;8.07;;
57567;SDS011;43403;51.948;5.922;2022-11-13T12:24:58;12.85;;;9.88;;
57567;SDS011;43403;51.948;5.922;2022-11-13T12:27:46;10.38;;;8.18;;
57567;SDS011;43403;51.948;5.922;2022-11-13T12:30:26;10.57;;;8.15;;
57567;SDS011;43403;51.948;5.922;2022-11-13T12:35:46;10.43;;;8.88;;
57567;SDS011;43403;51.948;5.922;2022-11-13T12:41:11;11.25;;;8.85;;
57567;SDS011;43403;51.948;5.922;2022-11-13T12:43:48;10.75;;;8.60;;
57567;SDS011;43403;51.948;5.922;2022-11-13T12:46:31;9.70;;;8.70;;
57567;SDS011;43403;51.948;5.922;2022-11-13T12:48:59;9.63;;;7.97;;
57567;SDS011;43403;51.948;5.922;2022-11-13T12:51:36;11.30;;;8.45;;
57567;SDS011;43403;51.948;5.922;2022-11-13T12:54:08;9.43;;;7.88;;
57567;SDS011;43403;51.948;5.922;2022-11-13T12:56:35;9.52;;;7.60;;
57567;SDS011;43403;51.948;5.922;2022-11-13T13:04:30;9.23;;;8.02;;
57567;SDS011;43403;51.948;5.922;2022-11-13T13:10:15;10.38;;;7.28;;
57567;SDS011;43403;51.948;5.922;2022-11-13T13:15:53;8.93;;;7.63;;
57567;SDS011;43403;51.948;5.922;2022-11-13T13:18:24;9.60;;;7.80;;
57567;SDS011;43403;51.948;5.922;2022-11-13T13:23:41;8.50;;;7.43;;
57567;SDS011;43403;51.948;5.922;2022-11-13T13:28:39;8.73;;;7.32;;
57567;SDS011;43403;51.948;5.922;2022-11-13T13:39:50;10.07;;;7.35;;
57567;SDS011;43403;51.948;5.922;2022-11-13T13:42:29;10.00;;;7.45;;
57567;SDS011;43403;51.948;5.922;2022-11-13T13:48:23;10.95;;;8.20;;
57567;SDS011;43403;51.948;5.922;2022-11-13T13:50:52;10.82;;;7.28;;
57567;SDS011;43403;51.948;5.922;2022-11-13T13:53:21;9.88;;;7.60;;
57567;SDS011;43403;51.948;5.922;2022-11-13T13:56:01;9.05;;;7.47;;
57567;SDS011;43403;51.948;5.922;2022-11-13T13:58:32;8.50;;;6.80;;
57567;SDS011;43403;51.948;5.922;2022-11-13T14:01:02;8.27;;;7.25;;
57567;SDS011;43403;51.948;5.922;2022-11-13T14:03:44;8.45;;;7.10;;
57567;SDS011;43403;51.948;5.922;2022-11-13T14:06:20;9.05;;;6.70;;
57567;SDS011;43403;51.948;5.922;2022-11-13T14:08:48;9.07;;;7.07;;
57567;SDS011;43403;51.948;5.922;2022-11-13T14:11:22;11.25;;;8.02;;
57567;SDS011;43403;51.948;5.922;2022-11-13T14:14:05;11.10;;;8.55;;
57567;SDS011;43403;51.948;5.922;2022-11-13T14:16:32;12.68;;;7.85;;
57567;SDS011;43403;51.948;5.922;2022-11-13T14:19:02;10.50;;;7.65;;
57567;SDS011;43403;51.948;5.922;2022-11-13T14:21:30;9.60;;;7.75;;
57567;SDS011;43403;51.948;5.922;2022-11-13T14:23:56;8.20;;;6.40;;
57567;SDS011;43403;51.948;5.922;2022-11-13T14:26:26;7.78;;;6.20;;
57567;SDS011;43403;51.948;5.922;2022-11-13T14:28:55;9.02;;;6.72;;
57567;SDS011;43403;51.948;5.922;2022-11-13T14:31:26;8.55;;;6.78;;
57567;SDS011;43403;51.948;5.922;2022-11-13T14:33:55;8.18;;;6.13;;
57567;SDS011;43403;51.948;5.922;2022-11-13T14:36:26;8.45;;;6.38;;
57567;SDS011;43403;51.948;5.922;2022-11-13T14:38:56;8.27;;;6.28;;
57567;SDS011;43403;51.948;5.922;2022-11-13T14:44:01;7.20;;;5.53;;
57567;SDS011;43403;51.948;5.922;2022-11-13T14:46:29;9.43;;;6.32;;
57567;SDS011;43403;51.948;5.922;2022-11-13T14:48:56;9.30;;;6.35;;
57567;SDS011;43403;51.948;5.922;2022-11-13T14:51:27;7.35;;;6.07;;
57567;SDS011;43403;51.948;5.922;2022-11-13T14:53:58;9.40;;;6.13;;
57567;SDS011;43403;51.948;5.922;2022-11-13T14:56:37;7.90;;;5.75;;
57567;SDS011;43403;51.948;5.922;2022-11-13T14:59:16;10.00;;;5.88;;
57567;SDS011;43403;51.948;5.922;2022-11-13T15:01:54;8.15;;;6.25;;
57567;SDS011;43403;51.948;5.922;2022-11-13T15:04:23;8.57;;;5.70;;
57567;SDS011;43403;51.948;5.922;2022-11-13T15:06:50;7.57;;;5.63;;
57567;SDS011;43403;51.948;5.922;2022-11-13T15:09:21;7.10;;;5.10;;
57567;SDS011;43403;51.948;5.922;2022-11-13T15:14:16;6.38;;;3.67;;
57567;SDS011;43403;51.948;5.922;2022-11-13T15:16:44;6.13;;;4.80;;
57567;SDS011;43403;51.948;5.922;2022-11-13T15:21:38;6.38;;;4.90;;
57567;SDS011;43403;51.948;5.922;2022-11-13T15:24:05;7.05;;;5.30;;
57567;SDS011;43403;51.948;5.922;2022-11-13T15:26:32;6.93;;;5.30;;
57567;SDS011;43403;51.948;5.922;2022-11-13T15:28:59;6.70;;;5.18;;
57567;SDS011;43403;51.948;5.922;2022-11-13T15:31:33;9.20;;;6.25;;
57567;SDS011;43403;51.948;5.922;2022-11-13T15:34:01;13.43;;;7.45;;
57567;SDS011;43403;51.948;5.922;2022-11-13T15:36:28;16.48;;;9.05;;
57567;SDS011;43403;51.948;5.922;2022-11-13T15:38:54;11.35;;;7.60;;
57567;SDS011;43403;51.948;5.922;2022-11-13T15:41:21;10.05;;;6.25;;
57567;SDS011;43403;51.948;5.922;2022-11-13T15:43:51;9.27;;;5.68;;
57567;SDS011;43403;51.948;5.922;2022-11-13T15:48:47;6.20;;;4.82;;
57567;SDS011;43403;51.948;5.922;2022-11-13T15:56:42;6.57;;;5.55;;
57567;SDS011;43403;51.948;5.922;2022-11-13T15:59:11;7.93;;;4.97;;
57567;SDS011;43403;51.948;5.922;2022-11-13T16:01:39;7.13;;;4.47;;
57567;SDS011;43403;51.948;5.922;2022-11-13T16:04:06;7.93;;;5.53;;
57567;SDS011;43403;51.948;5.922;2022-11-13T16:06:33;8.60;;;6.45;;
57567;SDS011;43403;51.948;5.922;2022-11-13T16:09:01;8.15;;;5.75;;
57567;SDS011;43403;51.948;5.922;2022-11-13T16:11:29;8.30;;;5.63;;
57567;SDS011;43403;51.948;5.922;2022-11-13T16:13:57;9.93;;;6.93;;
57567;SDS011;43403;51.948;5.922;2022-11-13T16:16:24;7.30;;;5.70;;
57567;SDS011;43403;51.948;5.922;2022-11-13T16:18:55;9.25;;;7.07;;
57567;SDS011;43403;51.948;5.922;2022-11-13T16:21:25;8.43;;;6.75;;
57567;SDS011;43403;51.948;5.922;2022-11-13T16:23:52;8.52;;;6.53;;
57567;SDS011;43403;51.948;5.922;2022-11-13T16:26:22;9.65;;;6.85;;
57567;SDS011;43403;51.948;5.922;2022-11-13T16:28:51;8.27;;;6.93;;
57567;SDS011;43403;51.948;5.922;2022-11-13T16:31:38;9.85;;;6.97;;